createdAt,value
2023-01-10T00:00:51.587Z,5.44
2023-01-10T00:03:18.722Z,5.36
2023-01-10T00:05:45.510Z,5.36
2023-01-10T00:08:16.323Z,5.41
2023-01-10T00:10:42.868Z,5.41
2023-01-10T00:13:24.463Z,5.38
2023-01-10T00:15:53.034Z,5.29
2023-01-10T00:18:22.687Z,5.36
2023-01-10T00:20:49.644Z,5.28
2023-01-10T00:23:18.393Z,5.29
2023-01-10T00:25:45.550Z,5.28
2023-01-10T00:28:20.969Z,5.24
2023-01-10T00:31:04.436Z,5.24
2023-01-10T00:33:34.361Z,5.16
2023-01-10T00:36:02.296Z,5.18
2023-01-10T00:38:35.919Z,5.15
2023-01-10T00:41:03.598Z,5.04
2023-01-10T00:43:48.580Z,5.09
2023-01-10T00:46:15.144Z,5.07
2023-01-10T00:48:41.707Z,5.07
2023-01-10T00:51:10.623Z,4.97
2023-01-10T00:53:39.750Z,5.01
2023-01-10T00:56:06.709Z,5.08
2023-01-10T00:58:34.102Z,5.17
2023-01-10T01:01:03.205Z,5.18
2023-01-10T01:03:29.722Z,5.22
2023-01-10T01:05:56.333Z,5.22
2023-01-10T01:08:22.892Z,5.25
2023-01-10T01:10:49.672Z,5.37
2023-01-10T01:13:21.491Z,5.43
2023-01-10T01:15:50.309Z,5.42
2023-01-10T01:18:25.392Z,5.55
2023-01-10T01:20:56.869Z,5.66
2023-01-10T01:23:24.444Z,5.73
2023-01-10T01:25:52.174Z,5.80
2023-01-10T01:28:19.127Z,5.83
2023-01-10T01:30:50.488Z,5.83
2023-01-10T01:33:17.979Z,5.84
2023-01-10T01:35:46.835Z,5.86
2023-01-10T01:38:18.221Z,5.86
2023-01-10T01:40:45.076Z,5.92
2023-01-10T01:43:23.462Z,5.95
2023-01-10T01:45:50.528Z,5.97
2023-01-10T01:48:42.421Z,5.93
2023-01-10T01:51:21.134Z,5.86
2023-01-10T01:53:51.020Z,5.82
2023-01-10T01:56:27.872Z,5.80
2023-01-10T01:58:58.912Z,5.80
2023-01-10T02:01:27.983Z,5.84
2023-01-10T02:04:01.429Z,5.92
2023-01-10T02:06:28.097Z,5.90
2023-01-10T02:09:23.797Z,5.95
2023-01-10T02:11:50.874Z,5.92
2023-01-10T02:14:17.800Z,5.97
2023-01-10T02:16:44.485Z,6.00
2023-01-10T02:19:23.994Z,6.01
2023-01-10T02:22:15.375Z,6.02
2023-01-10T02:25:11.456Z,5.96
2023-01-10T02:27:48.412Z,6.06
2023-01-10T02:30:28.712Z,6.05
2023-01-10T02:33:17.017Z,6.05
2023-01-10T02:35:51.792Z,6.06
2023-01-10T02:38:37.259Z,6.07
2023-01-10T02:41:29.572Z,5.99
2023-01-10T02:44:27.797Z,6.06
2023-01-10T02:46:56.328Z,6.00
2023-01-10T02:49:22.869Z,5.96
2023-01-10T02:51:49.426Z,5.84
2023-01-10T02:54:21.472Z,5.83
2023-01-10T02:56:54.129Z,5.77
2023-01-10T02:59:44.891Z,5.68
2023-01-10T03:02:32.387Z,5.66
2023-01-10T03:05:11.439Z,5.65
2023-01-10T03:07:58.406Z,5.62
2023-01-10T03:10:43.660Z,5.73
2023-01-10T03:13:16.241Z,5.77
2023-01-10T03:15:45.318Z,5.82
2023-01-10T03:18:22.273Z,5.73
2023-01-10T03:20:52.475Z,5.82
2023-01-10T03:23:21.072Z,5.87
2023-01-10T03:25:53.293Z,5.91
2023-01-10T03:28:30.456Z,5.94
2023-01-10T03:30:59.920Z,5.97
2023-01-10T03:33:30.864Z,5.96
2023-01-10T03:36:30.978Z,6.01
2023-01-10T03:39:11.705Z,6.03
2023-01-10T03:41:46.765Z,6.02
2023-01-10T03:44:40.180Z,5.95
2023-01-10T03:47:09.652Z,5.92
2023-01-10T03:49:39.686Z,5.92
2023-01-10T03:52:09.600Z,5.89
2023-01-10T03:54:36.175Z,5.82
2023-01-10T03:57:02.974Z,5.89
2023-01-10T03:59:32.147Z,5.93
2023-01-10T04:01:58.943Z,5.91
2023-01-10T04:04:28.034Z,5.78
2023-01-10T04:06:54.739Z,5.84
2023-01-10T04:09:21.538Z,5.84
2023-01-10T04:11:48.172Z,5.90
2023-01-10T04:14:14.672Z,5.93
2023-01-10T04:16:43.633Z,5.95
2023-01-10T04:19:10.204Z,5.89
2023-01-10T04:21:36.776Z,5.94
2023-01-10T04:24:03.515Z,5.98
2023-01-10T04:26:30.136Z,5.92
2023-01-10T04:28:56.717Z,5.80
2023-01-10T04:31:29.188Z,5.84
2023-01-10T04:33:55.809Z,5.84
2023-01-10T04:36:22.442Z,5.88
2023-01-10T04:38:48.981Z,5.89
2023-01-10T04:41:17.756Z,5.91
2023-01-10T04:43:44.397Z,5.96
2023-01-10T04:46:10.988Z,5.97
2023-01-10T04:48:37.664Z,5.93
2023-01-10T04:51:04.511Z,5.83
2023-01-10T04:53:31.229Z,5.96
2023-01-10T04:56:08.645Z,5.96
2023-01-10T04:58:39.233Z,5.89
2023-01-10T05:01:17.849Z,5.95
2023-01-10T05:03:48.192Z,5.93
2023-01-10T05:06:15.167Z,5.86
2023-01-10T05:08:41.736Z,5.76
2023-01-10T05:11:10.493Z,5.66
2023-01-10T05:13:37.643Z,5.56
2023-01-10T05:16:04.788Z,5.56
2023-01-10T05:18:31.934Z,5.46
2023-01-10T05:21:03.826Z,5.47
2023-01-10T05:23:33.066Z,5.42
2023-01-10T05:26:09.560Z,5.43
2023-01-10T05:28:36.451Z,5.42
2023-01-10T05:31:10.933Z,5.37
2023-01-10T05:33:37.813Z,5.41
2023-01-10T05:36:06.704Z,5.55
2023-01-10T05:38:34.242Z,5.57
2023-01-10T05:41:01.317Z,5.55
2023-01-10T05:43:31.261Z,5.50
2023-01-10T05:45:57.864Z,5.52
2023-01-10T05:48:26.720Z,5.53
2023-01-10T05:50:54.288Z,5.63
2023-01-10T05:53:20.931Z,5.66
2023-01-10T05:55:54.209Z,5.66
2023-01-10T05:58:20.876Z,5.65
2023-01-10T06:00:47.800Z,5.65
2023-01-10T06:03:14.420Z,5.67
2023-01-10T06:05:40.932Z,5.61
2023-01-10T06:08:07.546Z,5.65
2023-01-10T06:10:36.407Z,5.63
2023-01-10T06:13:05.035Z,5.71
2023-01-10T06:15:35.354Z,5.75
2023-01-10T06:18:02.251Z,5.79
2023-01-10T06:20:31.723Z,5.81
2023-01-10T06:23:02.317Z,5.83
2023-01-10T06:25:29.445Z,5.85
2023-01-10T06:27:56.246Z,5.83
2023-01-10T06:30:23.433Z,5.82
2023-01-10T06:32:52.454Z,5.83
2023-01-10T06:35:19.068Z,5.79
2023-01-10T06:37:45.783Z,5.83
2023-01-10T06:40:12.651Z,5.80
2023-01-10T06:42:40.555Z,5.70
2023-01-10T06:45:10.479Z,5.72
2023-01-10T06:47:37.808Z,5.72
2023-01-10T06:50:05.445Z,5.71
2023-01-10T06:52:34.281Z,5.61
2023-01-10T06:55:03.068Z,5.54
2023-01-10T06:57:33.156Z,5.40
2023-01-10T06:59:59.686Z,5.34
2023-01-10T07:02:26.195Z,5.29
2023-01-10T07:04:52.757Z,5.26
2023-01-10T07:07:19.472Z,5.25
2023-01-10T07:09:48.363Z,5.16
2023-01-10T07:12:15.146Z,5.47
2023-01-10T07:14:44.365Z,5.28
2023-01-10T07:17:11.145Z,5.17
2023-01-10T07:19:37.710Z,5.18
2023-01-10T07:22:04.318Z,5.15
2023-01-10T07:24:30.891Z,5.20
2023-01-10T07:26:57.504Z,5.20
2023-01-10T07:29:24.075Z,5.32
2023-01-10T07:31:51.704Z,5.54
2023-01-10T07:34:20.994Z,5.56
2023-01-10T07:36:47.588Z,5.53
2023-01-10T07:39:17.138Z,5.62
2023-01-10T07:41:43.922Z,5.59
2023-01-10T07:44:10.552Z,5.66
2023-01-10T07:46:37.158Z,5.72
2023-01-10T07:49:03.682Z,5.74
2023-01-10T07:51:30.231Z,5.76
2023-01-10T07:53:56.727Z,5.75
2023-01-10T07:56:23.524Z,5.78
2023-01-10T07:58:52.487Z,5.79
2023-01-10T08:01:19.092Z,5.75
2023-01-10T08:03:45.683Z,5.78
2023-01-10T08:06:16.717Z,5.79
2023-01-10T08:08:43.473Z,5.80
2023-01-10T08:11:10.005Z,5.82
2023-01-10T08:13:36.901Z,5.89
2023-01-10T08:16:08.462Z,5.92
2023-01-10T08:18:35.378Z,5.99
2023-01-10T08:21:01.987Z,5.94
2023-01-10T08:23:28.557Z,6.03
2023-01-10T08:25:58.882Z,5.99
2023-01-10T08:28:25.461Z,6.03
2023-01-10T08:30:55.728Z,6.08
2023-01-10T08:33:23.954Z,6.11
2023-01-10T08:35:51.120Z,6.02
2023-01-10T08:38:17.699Z,6.06
2023-01-10T08:40:44.262Z,6.13
2023-01-10T08:43:12.695Z,6.15
2023-01-10T08:45:39.857Z,6.11
2023-01-10T08:48:11.972Z,6.13
2023-01-10T08:50:38.567Z,6.20
2023-01-10T08:53:05.402Z,6.18
2023-01-10T08:55:32.049Z,6.18
2023-01-10T08:58:02.628Z,6.23
2023-01-10T09:00:31.785Z,6.22
2023-01-10T09:02:58.590Z,6.26
2023-01-10T09:05:28.504Z,6.22
2023-01-10T09:08:00.386Z,6.30
2023-01-10T09:10:28.823Z,6.33
2023-01-10T09:12:55.686Z,6.35
2023-01-10T09:15:33.735Z,6.31
2023-01-10T09:18:02.609Z,6.39
2023-01-10T09:20:29.810Z,6.40
2023-01-10T09:22:58.475Z,6.38
2023-01-10T09:25:25.537Z,6.38
2023-01-10T09:28:00.003Z,6.31
2023-01-10T09:30:28.083Z,6.26
2023-01-10T09:32:55.870Z,6.31
2023-01-10T09:35:23.649Z,6.33
2023-01-10T09:37:50.496Z,6.33
2023-01-10T09:40:22.468Z,6.31
2023-01-10T09:43:17.506Z,6.33
2023-01-10T09:45:57.947Z,6.36
2023-01-10T09:48:36.227Z,6.33
2023-01-10T09:51:23.136Z,6.41
2023-01-10T09:53:53.809Z,6.40
2023-01-10T09:56:22.839Z,6.48
2023-01-10T09:58:50.100Z,6.46
2023-01-10T10:01:21.835Z,6.58
2023-01-10T10:04:15.822Z,6.62
2023-01-10T10:06:49.386Z,6.62
2023-01-10T10:09:23.343Z,6.61
2023-01-10T10:12:25.371Z,6.71
2023-01-10T10:15:00.955Z,6.76
2023-01-10T10:17:46.305Z,6.78
2023-01-10T10:20:30.587Z,6.83
2023-01-10T10:23:03.309Z,6.83
2023-01-10T10:25:58.679Z,6.85
2023-01-10T10:28:53.819Z,6.89
2023-01-10T10:31:21.853Z,6.94
2023-01-10T10:34:09.017Z,6.94
2023-01-10T10:36:57.909Z,6.98
2023-01-10T10:39:59.417Z,6.88
2023-01-10T10:42:36.401Z,6.99
2023-01-10T10:45:07.231Z,6.97
2023-01-10T10:47:39.067Z,7.03
2023-01-10T10:50:16.271Z,7.06
2023-01-10T10:52:46.828Z,7.03
2023-01-10T10:55:17.128Z,7.11
2023-01-10T10:57:59.408Z,7.10
2023-01-10T11:00:29.537Z,7.20
2023-01-10T11:03:07.755Z,7.24
2023-01-10T11:05:42.386Z,7.28
2023-01-10T11:08:15.018Z,7.30
2023-01-10T11:10:44.518Z,7.35
2023-01-10T11:13:19.468Z,7.36
2023-01-10T11:15:48.272Z,7.38
2023-01-10T11:18:26.595Z,7.44
2023-01-10T11:21:04.866Z,7.47
2023-01-10T11:23:40.601Z,7.46
2023-01-10T11:26:10.922Z,7.48
2023-01-10T11:28:38.377Z,7.49
2023-01-10T11:31:05.087Z,7.54
2023-01-10T11:33:35.815Z,7.45
2023-01-10T11:36:10.549Z,7.46
2023-01-10T11:38:37.174Z,7.52
2023-01-10T11:41:25.236Z,7.54
2023-01-10T11:44:11.728Z,7.53
2023-01-10T11:46:44.185Z,7.48
2023-01-10T11:49:21.159Z,7.53
2023-01-10T11:51:56.289Z,7.53
2023-01-10T11:54:25.951Z,7.60
2023-01-10T11:57:16.565Z,7.58
2023-01-10T12:00:00.373Z,7.60
2023-01-10T12:02:35.879Z,7.60
2023-01-10T12:05:11.023Z,7.60
2023-01-10T12:08:06.390Z,7.65
2023-01-10T12:10:34.516Z,7.64
2023-01-10T12:13:21.358Z,7.68
2023-01-10T12:15:49.389Z,7.65
2023-01-10T12:18:17.797Z,7.68
2023-01-10T12:20:51.881Z,7.66
2023-01-10T12:23:24.311Z,7.72
2023-01-10T12:25:57.505Z,7.74
2023-01-10T12:28:36.380Z,7.78
2023-01-10T12:31:05.443Z,7.78
2023-01-10T12:33:41.254Z,7.79
2023-01-10T12:36:34.680Z,7.78
2023-01-10T12:39:25.135Z,7.73
2023-01-10T12:42:16.454Z,7.75
2023-01-10T12:44:47.737Z,7.72
2023-01-10T12:47:55.584Z,7.72
2023-01-10T12:50:37.101Z,7.73
2023-01-10T12:53:06.617Z,7.72
2023-01-10T12:55:41.681Z,7.72
2023-01-10T12:58:21.728Z,7.71
2023-01-10T13:01:01.923Z,7.71
2023-01-10T13:03:33.436Z,7.73
2023-01-10T13:06:01.104Z,7.72
2023-01-10T13:08:32.239Z,7.75
2023-01-10T13:11:03.102Z,7.70
2023-01-10T13:13:48.573Z,7.79
2023-01-10T13:16:33.582Z,7.81
2023-01-10T13:19:12.335Z,7.82
2023-01-10T13:21:41.137Z,7.84
2023-01-10T13:24:23.594Z,7.84
2023-01-10T13:26:53.722Z,7.83
2023-01-10T13:29:26.760Z,7.90
2023-01-10T13:31:57.390Z,7.80
2023-01-10T13:34:27.989Z,7.94
2023-01-10T13:37:04.619Z,7.95
2023-01-10T13:39:40.108Z,7.95
2023-01-10T13:42:25.152Z,8.01
2023-01-10T13:45:03.368Z,8.03
2023-01-10T13:47:46.209Z,8.06
2023-01-10T13:50:25.442Z,8.04
2023-01-10T13:53:14.672Z,8.09
2023-01-10T13:55:46.400Z,8.09
2023-01-10T13:58:16.117Z,8.10
2023-01-10T14:01:05.578Z,8.03
2023-01-10T14:03:58.514Z,8.06
2023-01-10T14:06:28.178Z,8.03
2023-01-10T14:08:56.222Z,8.02
2023-01-10T14:11:26.192Z,7.96
2023-01-10T14:13:57.208Z,7.88
2023-01-10T14:16:45.493Z,7.92
2023-01-10T14:19:34.155Z,7.86
2023-01-10T14:22:03.910Z,7.87
2023-01-10T14:24:45.334Z,7.88
2023-01-10T14:27:17.708Z,7.86
2023-01-10T14:29:53.111Z,7.79
2023-01-10T14:32:43.691Z,7.82
2023-01-10T14:35:18.429Z,7.80
2023-01-10T14:37:53.136Z,7.71
2023-01-10T14:40:28.590Z,7.78
2023-01-10T14:42:58.596Z,7.70
2023-01-10T14:45:45.441Z,7.72
2023-01-10T14:48:26.966Z,7.70
2023-01-10T14:51:30.197Z,7.56
2023-01-10T14:54:03.709Z,7.63
2023-01-10T14:56:36.712Z,7.62
2023-01-10T14:59:29.992Z,7.58
2023-01-10T15:01:59.166Z,7.55
2023-01-10T15:04:33.733Z,7.55
2023-01-10T15:07:11.714Z,7.51
2023-01-10T15:09:47.434Z,7.47
2023-01-10T15:12:16.462Z,7.46
2023-01-10T15:14:43.399Z,7.48
2023-01-10T15:17:20.080Z,7.40
2023-01-10T15:19:52.434Z,7.44
2023-01-10T15:22:26.155Z,7.41
2023-01-10T15:25:20.041Z,7.39
2023-01-10T15:27:50.245Z,7.38
2023-01-10T15:30:25.940Z,7.35
2023-01-10T15:33:02.933Z,7.29
2023-01-10T15:35:36.233Z,7.26
2023-01-10T15:38:11.691Z,7.23
2023-01-10T15:40:40.347Z,7.25
2023-01-10T15:43:27.444Z,7.20
2023-01-10T15:45:56.986Z,7.21
2023-01-10T15:48:26.861Z,7.19
2023-01-10T15:51:03.816Z,7.17
2023-01-10T15:53:50.100Z,7.15
2023-01-10T15:56:20.840Z,7.07
2023-01-10T15:58:50.513Z,7.13
2023-01-10T16:01:17.306Z,7.05
2023-01-10T16:03:59.482Z,7.12
2023-01-10T16:06:27.779Z,7.10
2023-01-10T16:08:56.275Z,7.06
2023-01-10T16:11:57.961Z,7.07
2023-01-10T16:14:24.630Z,7.05
2023-01-10T16:16:53.964Z,6.97
2023-01-10T16:19:20.482Z,7.02
2023-01-10T16:21:51.073Z,6.96
2023-01-10T16:24:22.969Z,7.01
2023-01-10T16:26:50.801Z,7.00
2023-01-10T16:29:17.742Z,6.99
2023-01-10T16:31:44.393Z,6.95
2023-01-10T16:34:13.177Z,6.99
2023-01-10T16:36:41.282Z,6.97
2023-01-10T16:39:14.740Z,6.99
2023-01-10T16:42:08.314Z,6.98
2023-01-10T16:44:35.436Z,6.89
2023-01-10T16:47:07.221Z,6.98
2023-01-10T16:49:34.164Z,6.98
2023-01-10T16:52:00.731Z,6.90
2023-01-10T16:54:28.228Z,6.97
2023-01-10T16:56:54.874Z,6.97
2023-01-10T16:59:24.334Z,6.97
2023-01-10T17:01:54.568Z,6.97
2023-01-10T17:04:35.640Z,6.96
2023-01-10T17:07:02.289Z,6.96
2023-01-10T17:09:30.667Z,6.93
2023-01-10T17:12:04.115Z,6.88
2023-01-10T17:14:35.822Z,6.99
2023-01-10T17:17:03.298Z,6.93
2023-01-10T17:19:32.081Z,6.99
2023-01-10T17:22:00.339Z,6.94
2023-01-10T17:24:29.647Z,7.01
2023-01-10T17:26:56.279Z,7.03
2023-01-10T17:29:23.485Z,7.00
2023-01-10T17:31:50.353Z,7.02
2023-01-10T17:34:16.963Z,7.07
2023-01-10T17:36:43.567Z,7.00
2023-01-10T17:39:10.148Z,7.04
2023-01-10T17:41:36.760Z,7.03
2023-01-10T17:44:03.368Z,7.12
2023-01-10T17:46:30.052Z,7.12
2023-01-10T17:48:56.807Z,7.12
2023-01-10T17:51:24.877Z,7.12
2023-01-10T17:53:51.783Z,7.18
2023-01-10T17:56:18.443Z,7.16
2023-01-10T17:58:45.485Z,7.21
2023-01-10T18:01:24.706Z,7.22
2023-01-10T18:03:51.921Z,7.24
2023-01-10T18:06:24.089Z,7.23
2023-01-10T18:08:51.388Z,7.24
2023-01-10T18:11:18.070Z,7.25
2023-01-10T18:13:44.688Z,7.31
2023-01-10T18:16:11.247Z,7.22
2023-01-10T18:18:37.802Z,7.35
2023-01-10T18:21:05.389Z,7.37
2023-01-10T18:23:33.334Z,7.30
2023-01-10T18:26:03.064Z,7.36
2023-01-10T18:28:40.822Z,7.39
2023-01-10T18:31:13.029Z,7.40
2023-01-10T18:33:42.914Z,7.45
2023-01-10T18:36:14.738Z,7.44
2023-01-10T18:38:41.843Z,7.25
2023-01-10T18:41:08.797Z,7.48
2023-01-10T18:43:37.621Z,7.42
2023-01-10T18:46:10.304Z,7.52
2023-01-10T18:48:39.209Z,7.56
2023-01-10T18:51:06.519Z,7.57
2023-01-10T18:53:33.306Z,7.59
2023-01-10T18:56:18.789Z,7.62
2023-01-10T18:58:45.382Z,7.48
2023-01-10T19:01:15.012Z,7.62
2023-01-10T19:03:42.552Z,7.60
2023-01-10T19:06:11.277Z,7.68
2023-01-10T19:08:39.225Z,7.68
2023-01-10T19:11:13.967Z,7.69
2023-01-10T19:13:41.898Z,7.68
2023-01-10T19:16:20.713Z,7.73
2023-01-10T19:18:53.069Z,7.76
2023-01-10T19:21:20.411Z,7.74
2023-01-10T19:23:51.706Z,7.79
2023-01-10T19:26:18.637Z,7.80
2023-01-10T19:28:45.650Z,7.76
2023-01-10T19:31:21.747Z,7.82
2023-01-10T19:33:50.383Z,7.79
2023-01-10T19:36:18.965Z,7.77
2023-01-10T19:38:46.162Z,7.79
2023-01-10T19:41:14.426Z,7.83
2023-01-10T19:43:40.962Z,7.91
2023-01-10T19:46:09.082Z,7.92
2023-01-10T19:48:38.080Z,7.94
2023-01-10T19:51:12.056Z,7.98
2023-01-10T19:53:44.998Z,7.95
2023-01-10T19:56:13.812Z,8.02
2023-01-10T19:58:40.410Z,8.03
2023-01-10T20:01:12.776Z,8.05
2023-01-10T20:03:42.187Z,8.04
2023-01-10T20:06:14.231Z,8.05
2023-01-10T20:08:41.434Z,8.13
2023-01-10T20:11:11.282Z,8.16
2023-01-10T20:13:44.460Z,8.18
2023-01-10T20:16:13.207Z,8.19
2023-01-10T20:18:39.973Z,8.22
2023-01-10T20:21:08.909Z,8.25
2023-01-10T20:23:37.408Z,8.31
2023-01-10T20:26:12.079Z,8.29
2023-01-10T20:28:39.797Z,8.23
2023-01-10T20:31:08.925Z,8.39
2023-01-10T20:33:35.777Z,8.27
2023-01-10T20:36:08.365Z,8.44
2023-01-10T20:38:36.833Z,8.40
2023-01-10T20:41:07.326Z,8.42
2023-01-10T20:43:34.354Z,8.48
2023-01-10T20:46:10.907Z,8.50
2023-01-10T20:48:38.467Z,8.48
2023-01-10T20:51:07.850Z,8.53
2023-01-10T20:53:35.399Z,8.56
2023-01-10T20:56:07.279Z,8.53
2023-01-10T20:58:35.109Z,8.57
2023-01-10T21:01:02.629Z,8.49
2023-01-10T21:03:32.158Z,8.54
2023-01-10T21:05:59.464Z,8.52
2023-01-10T21:08:29.801Z,8.61
2023-01-10T21:10:59.658Z,8.58
2023-01-10T21:13:26.974Z,8.60
2023-01-10T21:15:55.503Z,8.61
2023-01-10T21:18:24.787Z,8.59
2023-01-10T21:20:56.699Z,8.58
2023-01-10T21:23:25.411Z,8.65
2023-01-10T21:25:52.703Z,8.64
2023-01-10T21:28:20.070Z,8.68
2023-01-10T21:30:49.905Z,8.71
2023-01-10T21:33:19.108Z,8.68
2023-01-10T21:35:53.704Z,8.65
2023-01-10T21:38:20.853Z,8.75
2023-01-10T21:40:47.421Z,8.77
2023-01-10T21:43:14.027Z,8.86
2023-01-10T21:45:40.704Z,8.80
2023-01-10T21:48:07.230Z,8.70
2023-01-10T21:50:33.883Z,8.89
2023-01-10T21:53:01.301Z,8.88
2023-01-10T21:55:28.451Z,8.76
2023-01-10T21:57:55.037Z,8.83
2023-01-10T22:00:21.876Z,8.95
2023-01-10T22:02:48.461Z,8.97
2023-01-10T22:05:15.032Z,8.99
2023-01-10T22:07:41.702Z,8.94
2023-01-10T22:10:09.069Z,9.04
2023-01-10T22:12:36.726Z,9.06
2023-01-10T22:15:03.929Z,9.07
2023-01-10T22:17:30.583Z,9.13
2023-01-10T22:19:57.251Z,9.17
2023-01-10T22:22:26.045Z,9.03
2023-01-10T22:24:52.623Z,9.10
2023-01-10T22:27:24.664Z,9.16
2023-01-10T22:29:51.280Z,9.27
2023-01-10T22:32:22.748Z,9.24
2023-01-10T22:34:49.237Z,9.29
2023-01-10T22:37:16.091Z,9.35
2023-01-10T22:39:42.646Z,9.37
2023-01-10T22:42:09.182Z,9.38
2023-01-10T22:44:35.715Z,9.42
2023-01-10T22:47:04.836Z,9.47
2023-01-10T22:49:31.340Z,9.50
2023-01-10T22:52:00.191Z,9.51
2023-01-10T22:54:26.838Z,9.54
2023-01-10T22:56:53.395Z,9.57
2023-01-10T22:59:22.477Z,9.59
2023-01-10T23:01:51.483Z,9.60
2023-01-10T23:04:20.274Z,9.61
2023-01-10T23:06:46.978Z,9.64
2023-01-10T23:09:15.742Z,9.67
2023-01-10T23:11:42.279Z,9.69
2023-01-10T23:14:08.809Z,9.75
2023-01-10T23:16:35.428Z,9.78
2023-01-10T23:19:02.227Z,9.80
2023-01-10T23:21:31.055Z,9.83
2023-01-10T23:23:57.830Z,9.83
2023-01-10T23:26:26.524Z,9.85
2023-01-10T23:28:53.320Z,9.85
2023-01-10T23:31:22.750Z,9.90
2023-01-10T23:33:50.251Z,9.93
2023-01-10T23:36:17.704Z,9.88
2023-01-10T23:38:44.563Z,9.88
2023-01-10T23:41:11.515Z,9.94
2023-01-10T23:43:38.129Z,9.92
2023-01-10T23:46:06.450Z,9.95
2023-01-10T23:48:33.502Z,9.97
2023-01-10T23:51:00.090Z,10.02
2023-01-10T23:53:26.727Z,10.04
2023-01-10T23:55:53.453Z,10.06
2023-01-10T23:58:20.395Z,10.03
